METEOROLOGIA BHB

15 - 09:00 - METAR SAZB 150900Z 11008KT 9999 -RA OVC050 05/02 Q1033 =

IMAGEN SATELITAL

WINDY